Time;durP1;ratioP1;P1;durP2;ratioP2;P2;SDS_P1;SDS_P2;PMS_P1;PMS_P2;Temp;Humidity;BMP_temperature;BMP_pressure;BME280_temperature;BME280_humidity;BME280_pressure;Samples;Min_cycle;Max_cycle;Signal;HPM_P1;HPM_P2
2021/12/29 00:02:24;;;;;;;3.50;1.88;;;18.90;71.00;;;;;;4993118;28;95800;-54
2021/12/29 00:04:56;;;;;;;3.95;1.70;;;18.90;71.00;;;;;;4990440;28;95788;-57
2021/12/29 00:07:28;;;;;;;2.53;1.83;;;19.00;71.20;;;;;;4996494;28;95921;-53
2021/12/29 00:10:02;;;;;;;9.65;2.30;;;19.00;71.20;;;;;;4995065;28;97873;-51
2021/12/29 00:12:40;;;;;;;4.40;1.83;;;19.00;70.80;;;;;;5000842;28;95807;-53
2021/12/29 00:15:13;;;;;;;5.63;1.75;;;19.00;70.30;;;;;;4992873;28;95830;-50
2021/12/29 00:17:45;;;;;;;3.55;1.52;;;19.00;70.50;;;;;;4994773;27;96504;-55
2021/12/29 00:20:22;;;;;;;9.88;1.90;;;19.00;70.00;;;;;;4992109;28;95879;-55
2021/12/29 00:22:52;;;;;;;5.03;2.10;;;19.00;69.60;;;;;;5004263;28;95917;-51
2021/12/29 00:25:22;;;;;;;7.95;2.15;;;19.00;68.60;;;;;;4993933;28;96325;-54
2021/12/29 00:27:58;;;;;;;7.03;2.00;;;19.00;68.80;;;;;;4997737;28;96522;-53
2021/12/29 00:30:30;;;;;;;4.68;1.73;;;19.10;68.20;;;;;;4993879;28;95999;-52
2021/12/29 00:33:01;;;;;;;;;;;19.30;67.20;;;;;;4988638;28;95820;-52
2021/12/29 00:35:51;;;;;;;3.20;1.50;;;19.30;66.40;;;;;;4998144;28;96178;-51
2021/12/29 00:38:56;;;;;;;4.97;1.80;;;19.30;66.30;;;;;;4981410;28;95994;-53
2021/12/29 00:41:59;;;;;;;;;;;19.20;65.80;;;;;;4959492;28;95750;-52
2021/12/29 00:44:50;;;;;;;7.53;2.00;;;19.20;65.80;;;;;;4993936;28;95582;-52
2021/12/29 00:47:20;;;;;;;3.85;1.85;;;19.10;65.40;;;;;;4988078;28;98514;-52
2021/12/29 00:49:53;;;;;;;6.40;1.80;;;19.10;65.90;;;;;;4991455;28;96870;-53
2021/12/29 00:52:23;;;;;;;5.75;1.50;;;19.10;65.60;;;;;;4996602;28;95597;-54
2021/12/29 00:54:54;;;;;;;2.38;1.42;;;19.10;65.40;;;;;;4998878;28;95884;-54
2021/12/29 00:57:25;;;;;;;2.47;1.77;;;19.20;65.20;;;;;;4994887;28;95357;-54
2021/12/29 00:59:56;;;;;;;5.35;2.00;;;19.30;64.70;;;;;;5001910;28;96505;-51
2021/12/29 01:02:28;;;;;;;3.17;1.70;;;19.40;64.50;;;;;;4993752;28;96156;-52
2021/12/29 01:05:00;;;;;;;3.20;1.23;;;19.40;64.00;;;;;;4989906;28;95927;-52
2021/12/29 01:07:32;;;;;;;2.83;1.58;;;19.50;63.40;;;;;;4992886;28;97994;-56
2021/12/29 01:10:06;;;;;;;3.45;1.92;;;19.50;63.30;;;;;;4997003;28;96752;-54
2021/12/29 01:12:39;;;;;;;4.68;1.65;;;19.60;63.20;;;;;;4998899;28;96286;-54
2021/12/29 01:15:14;;;;;;;4.53;1.50;;;19.60;62.70;;;;;;4993053;28;95441;-56
2021/12/29 01:17:45;;;;;;;4.18;1.33;;;19.60;63.20;;;;;;4995244;28;97673;-53
2021/12/29 01:20:16;;;;;;;3.50;1.35;;;19.70;62.20;;;;;;4997233;28;96095;-50
2021/12/29 01:22:47;;;;;;;4.40;1.30;;;19.80;62.10;;;;;;4990332;28;95871;-55
2021/12/29 01:25:18;;;;;;;3.30;1.63;;;19.80;62.00;;;;;;4994400;28;95831;-55
2021/12/29 01:27:49;;;;;;;1.95;1.33;;;19.90;62.00;;;;;;4996923;28;96339;-52
2021/12/29 01:30:21;;;;;;;1.98;1.52;;;20.00;62.30;;;;;;4989212;28;96100;-51
2021/12/29 01:32:51;;;;;;;9.52;1.58;;;20.10;61.80;;;;;;4993115;28;95819;-50
2021/12/29 01:35:21;;;;;;;1.90;1.42;;;20.00;61.70;;;;;;4999809;28;95742;-52
2021/12/29 01:37:51;;;;;;;4.03;1.75;;;19.90;61.60;;;;;;4994531;28;95979;-55
2021/12/29 01:40:22;;;;;;;4.50;1.60;;;20.00;62.10;;;;;;4994496;28;96086;-57
2021/12/29 01:42:56;;;;;;;2.92;1.77;;;20.10;61.90;;;;;;4995036;28;95252;-55
2021/12/29 01:45:27;;;;;;;5.85;1.70;;;20.10;61.80;;;;;;4987201;28;98335;-54
2021/12/29 01:48:01;;;;;;;2.63;2.03;;;20.20;62.70;;;;;;5000567;28;95825;-53
2021/12/29 01:50:33;;;;;;;5.25;2.15;;;20.20;62.80;;;;;;4980577;28;96077;-55
2021/12/29 01:53:09;;;;;;;4.15;2.05;;;20.30;63.40;;;;;;4994197;28;95772;-56
2021/12/29 01:55:40;;;;;;;10.70;2.00;;;20.30;63.90;;;;;;4988243;28;95972;-55
2021/12/29 01:58:10;;;;;;;4.15;1.83;;;20.40;63.80;;;;;;4993175;28;96275;-52
2021/12/29 02:00:41;;;;;;;7.38;1.88;;;20.50;64.20;;;;;;4988558;28;96086;-56
2021/12/29 02:03:13;;;;;;;6.78;1.58;;;20.50;64.20;;;;;;4998044;28;96887;-56
2021/12/29 02:05:45;;;;;;;2.97;1.58;;;20.40;64.50;;;;;;5000301;28;95699;-55
2021/12/29 02:08:22;;;;;;;6.30;1.80;;;20.40;64.80;;;;;;5000549;28;96245;-57
2021/12/29 02:10:56;;;;;;;2.95;1.58;;;20.40;64.90;;;;;;4999312;28;96491;-59
2021/12/29 02:13:28;;;;;;;4.25;1.70;;;20.50;65.00;;;;;;4998569;28;96176;-54
2021/12/29 02:15:59;;;;;;;1.70;1.42;;;20.50;65.00;;;;;;4975688;28;95783;-55
2021/12/29 02:18:31;;;;;;;3.40;1.50;;;20.50;65.10;;;;;;5002325;28;95797;-53
2021/12/29 02:21:02;;;;;;;2.60;1.30;;;20.50;64.80;;;;;;5005166;28;96447;-57
2021/12/29 02:23:45;;;;;;;3.07;1.40;;;20.70;65.00;;;;;;5004496;28;96136;-54
2021/12/29 02:26:16;;;;;;;4.35;1.70;;;20.70;64.90;;;;;;5001551;28;95835;-55
2021/12/29 02:28:49;;;;;;;6.93;1.58;;;20.70;65.10;;;;;;4994087;28;96361;-59
2021/12/29 02:31:20;;;;;;;6.45;1.80;;;20.70;65.90;;;;;;5007430;28;98129;-57
2021/12/29 02:33:51;;;;;;;5.53;1.80;;;20.80;65.30;;;;;;5001455;28;96333;-55
2021/12/29 02:36:22;;;;;;;4.10;1.67;;;20.90;65.30;;;;;;5004372;28;95745;-59
2021/12/29 02:38:56;;;;;;;3.58;1.48;;;21.00;65.10;;;;;;5003977;28;95949;-54
2021/12/29 02:41:31;;;;;;;2.95;1.27;;;21.10;65.00;;;;;;5018346;28;96406;-55
2021/12/29 02:44:02;;;;;;;7.03;1.65;;;21.10;65.00;;;;;;5003266;28;96475;-55
2021/12/29 02:46:35;;;;;;;4.97;1.60;;;21.20;64.90;;;;;;4992039;28;96130;-55
2021/12/29 02:49:05;;;;;;;4.85;1.50;;;21.20;64.70;;;;;;4998642;28;95817;-57
2021/12/29 02:51:35;;;;;;;4.03;1.30;;;21.20;64.60;;;;;;5002235;28;96417;-54
2021/12/29 02:54:06;;;;;;;3.78;1.38;;;21.30;64.90;;;;;;5000881;28;96116;-56
2021/12/29 02:56:36;;;;;;;8.57;1.80;;;21.30;55.30;;;;;;5002128;28;95975;-56
2021/12/29 02:59:06;;;;;;;4.40;1.50;;;21.30;55.10;;;;;;5017655;28;96025;-56
2021/12/29 03:01:36;;;;;;;3.63;1.77;;;21.40;54.90;;;;;;4994385;28;96757;-53
2021/12/29 03:04:11;;;;;;;2.95;1.42;;;21.40;64.00;;;;;;5001609;28;96234;-54
2021/12/29 03:06:45;;;;;;;3.65;1.50;;;21.40;63.80;;;;;;5001618;28;95772;-57
2021/12/29 03:09:19;;;;;;;3.67;1.20;;;21.40;63.80;;;;;;5002318;28;96104;-57
2021/12/29 03:11:52;;;;;;;4.18;1.75;;;21.50;64.00;;;;;;4997629;28;96448;-57
2021/12/29 03:14:25;;;;;;;6.03;1.75;;;21.50;63.80;;;;;;4996096;28;95910;-58
2021/12/29 03:16:58;;;;;;;5.53;1.35;;;21.50;63.90;;;;;;4985525;28;95959;-57
2021/12/29 03:19:29;;;;;;;3.03;1.45;;;21.60;64.00;;;;;;5000428;28;95837;-57
2021/12/29 03:21:59;;;;;;;6.75;1.83;;;21.70;63.80;;;;;;5001080;28;96530;-57
2021/12/29 03:24:29;;;;;;;4.28;1.73;;;21.80;63.50;;;;;;4997194;28;95760;-56
2021/12/29 03:27:01;;;;;;;3.60;1.50;;;21.80;63.10;;;;;;4998360;28;95799;-57
2021/12/29 03:29:34;;;;;;;5.68;1.58;;;21.90;63.40;;;;;;4995249;28;96448;-55
2021/12/29 03:32:09;;;;;;;4.72;1.63;;;22.00;63.50;;;;;;4973068;28;95969;-53
2021/12/29 03:34:40;;;;;;;2.58;1.17;;;22.00;63.70;;;;;;5015123;28;95823;-55
2021/12/29 03:37:10;;;;;;;2.50;1.33;;;22.20;63.70;;;;;;4980273;28;97135;-58
2021/12/29 03:39:40;;;;;;;5.75;1.48;;;22.20;63.70;;;;;;4999403;28;95412;-57
2021/12/29 03:42:11;;;;;;;3.60;1.08;;;22.30;63.60;;;;;;4985159;28;95905;-58
2021/12/29 03:44:42;;;;;;;1.67;1.17;;;22.40;63.80;;;;;;4998594;28;95964;-56
2021/12/29 03:47:13;;;;;;;2.35;1.45;;;22.50;63.60;;;;;;4969217;28;95916;-57
2021/12/29 03:49:44;;;;;;;1.92;1.40;;;22.50;63.60;;;;;;4997186;28;95256;-58
2021/12/29 03:52:16;;;;;;;2.30;1.17;;;22.60;63.60;;;;;;4998228;28;96491;-59
2021/12/29 03:54:46;;;;;;;4.00;1.50;;;22.70;63.70;;;;;;4983188;28;95886;-58
2021/12/29 03:57:16;;;;;;;6.40;1.92;;;22.70;62.10;;;;;;4987104;28;95922;-58
2021/12/29 03:59:46;;;;;;;3.83;1.52;;;22.70;62.30;;;;;;4994874;28;98914;-58
2021/12/29 04:02:17;;;;;;;5.22;1.58;;;22.60;62.30;;;;;;4988474;28;96724;-57
2021/12/29 04:04:48;;;;;;;4.00;1.45;;;22.50;62.00;;;;;;4996917;28;95752;-60
2021/12/29 04:07:19;;;;;;;3.33;1.35;;;22.60;61.90;;;;;;5002061;28;95343;-52
2021/12/29 04:09:50;;;;;;;2.78;1.10;;;22.70;61.90;;;;;;4991599;28;95261;-53
2021/12/29 04:12:23;;;;;;;3.42;1.25;;;22.80;61.80;;;;;;4992210;28;95827;-55
2021/12/29 04:14:54;;;;;;;2.03;1.67;;;22.90;61.50;;;;;;4993163;28;95377;-55
2021/12/29 04:17:36;;;;;;;2.10;1.40;;;22.90;61.00;;;;;;4991000;28;95442;-55
2021/12/29 04:23:08;;;;;;;3.25;1.17;;;23.10;61.10;;;;;;4990062;28;96077;-53
2021/12/29 04:25:40;;;;;;;4.35;1.50;;;23.20;60.70;;;;;;4990900;28;97755;-57
2021/12/29 04:28:20;;;;;;;2.42;1.10;;;23.20;60.90;;;;;;4988942;28;95512;-57
2021/12/29 04:30:54;;;;;;;2.03;0.82;;;23.30;60.30;;;;;;4989982;28;95689;-59
2021/12/29 04:33:27;;;;;;;1.50;1.00;;;23.30;60.40;;;;;;5005290;28;100068;-56
2021/12/29 04:35:57;;;;;;;3.45;1.40;;;23.40;60.70;;;;;;4995047;28;99076;-55
2021/12/29 04:38:28;;;;;;;2.17;1.57;;;23.50;60.50;;;;;;4998609;28;95770;-56
2021/12/29 04:40:58;;;;;;;1.52;1.20;;;23.50;60.40;;;;;;4992799;28;95584;-58
2021/12/29 04:43:30;;;;;;;5.35;1.10;;;23.60;60.30;;;;;;4997902;28;96488;-58
2021/12/29 04:46:00;;;;;;;2.80;1.13;;;23.70;60.40;;;;;;4993636;28;96403;-57
2021/12/29 04:48:37;;;;;;;2.25;1.33;;;23.70;59.80;;;;;;5005302;28;95903;-54
2021/12/29 04:51:16;;;;;;;3.03;1.30;;;23.50;56.10;;;;;;4992623;28;95958;-56
2021/12/29 04:53:46;;;;;;;2.88;1.75;;;23.30;55.10;;;;;;4987649;28;96209;-58
2021/12/29 04:56:18;;;;;;;3.15;1.30;;;23.20;55.00;;;;;;4995631;28;95894;-55
2021/12/29 04:58:51;;;;;;;1.75;1.15;;;23.20;55.20;;;;;;5004510;28;95608;-56
2021/12/29 05:01:22;;;;;;;1.90;0.98;;;23.10;54.20;;;;;;4980633;28;95673;-59
2021/12/29 05:03:54;;;;;;;5.43;0.93;;;23.10;54.20;;;;;;4999629;28;97073;-59
2021/12/29 05:09:16;;;;;;;4.50;1.20;;;23.00;53.30;;;;;;4993681;28;95388;-54
2021/12/29 05:11:48;;;;;;;3.70;1.38;;;23.00;53.80;;;;;;4992484;28;96222;-60
2021/12/29 05:14:19;;;;;;;3.72;1.15;;;23.00;53.40;;;;;;5004752;28;96593;-57
2021/12/29 05:16:51;;;;;;;4.47;1.20;;;23.00;53.40;;;;;;4988324;28;95929;-58
2021/12/29 05:19:22;;;;;;;3.42;1.23;;;22.90;53.30;;;;;;4991849;28;96069;-58
2021/12/29 05:21:56;;;;;;;1.67;1.17;;;23.00;53.20;;;;;;4995711;28;95877;-55
2021/12/29 05:24:26;;;;;;;2.92;1.58;;;23.00;53.10;;;;;;4990505;28;97166;-52
2021/12/29 05:26:58;;;;;;;2.20;1.00;;;23.10;53.00;;;;;;4988975;28;96086;-59
2021/12/29 05:29:32;;;;;;;5.13;1.90;;;23.10;53.00;;;;;;4990386;28;96417;-57
2021/12/29 05:32:04;;;;;;;4.60;1.75;;;23.10;52.50;;;;;;4992552;28;95383;-54
2021/12/29 05:34:36;;;;;;;2.63;1.10;;;23.10;53.10;;;;;;4986059;28;95987;-56
2021/12/29 05:37:07;;;;;;;1.27;0.90;;;23.20;53.40;;;;;;4995429;28;97106;-53
2021/12/29 05:39:37;;;;;;;1.10;0.90;;;23.30;53.70;;;;;;4994672;28;95673;-55
2021/12/29 05:42:08;;;;;;;1.77;1.10;;;23.40;53.70;;;;;;4984315;28;95576;-54
2021/12/29 05:44:40;;;;;;;1.35;0.85;;;23.50;53.90;;;;;;4987346;28;96750;-53
2021/12/29 05:47:09;;;;;;;1.20;1.10;;;23.50;52.50;;;;;;4989517;28;95994;-56
2021/12/29 05:49:39;;;;;;;3.72;1.02;;;23.40;52.30;;;;;;4988367;28;96077;-56
2021/12/29 05:52:10;;;;;;;5.20;1.08;;;23.40;52.20;;;;;;5003682;28;95226;-56
2021/12/29 05:54:40;;;;;;;3.00;1.48;;;23.30;52.10;;;;;;4997485;28;96020;-53
2021/12/29 05:57:12;;;;;;;2.22;1.25;;;23.40;52.40;;;;;;5000007;28;95598;-56
2021/12/29 05:59:43;;;;;;;2.60;1.35;;;23.40;52.70;;;;;;4990335;28;97641;-56
2021/12/29 06:02:16;;;;;;;1.83;1.20;;;23.50;52.60;;;;;;4987057;28;95602;-54
2021/12/29 06:04:46;;;;;;;3.20;0.90;;;23.50;52.50;;;;;;4993429;28;96097;-56
2021/12/29 06:07:18;;;;;;;2.70;1.00;;;23.60;52.40;;;;;;4994950;28;97579;-57
2021/12/29 06:09:50;;;;;;;2.03;0.80;;;23.60;52.30;;;;;;5002939;28;95759;-54
2021/12/29 06:12:21;;;;;;;5.25;1.33;;;23.70;52.40;;;;;;4993173;28;96044;-57
2021/12/29 06:14:53;;;;;;;2.45;1.08;;;23.70;51.60;;;;;;4990601;28;96142;-56
2021/12/29 06:17:24;;;;;;;3.60;1.10;;;23.70;52.10;;;;;;4977714;28;95567;-56
2021/12/29 06:19:56;;;;;;;3.53;1.15;;;23.80;52.60;;;;;;4995998;28;96068;-55
2021/12/29 06:22:26;;;;;;;5.05;1.13;;;23.80;52.80;;;;;;4992924;28;95489;-55
2021/12/29 06:24:57;;;;;;;2.57;1.00;;;23.90;52.90;;;;;;4997877;28;96501;-57
2021/12/29 06:27:28;;;;;;;1.52;1.05;;;24.00;53.00;;;;;;4991446;28;95776;-55
2021/12/29 06:30:00;;;;;;;0.60;0.60;;;24.10;53.30;;;;;;4996428;28;95866;-57
2021/12/29 06:32:31;;;;;;;3.63;1.45;;;24.10;54.10;;;;;;4987648;27;97706;-58
2021/12/29 06:35:02;;;;;;;1.98;0.90;;;24.10;52.30;;;;;;4992175;28;97109;-55
2021/12/29 06:37:32;;;;;;;;;;;23.90;50.80;;;;;;4990801;28;95808;-58
2021/12/29 06:40:04;;;;;;;4.25;1.30;;;23.80;50.60;;;;;;4998626;28;96555;-58
2021/12/29 06:42:35;;;;;;;3.88;1.42;;;23.70;51.10;;;;;;4999207;28;97849;-57
2021/12/29 06:45:08;;;;;;;1.17;1.00;;;23.60;51.40;;;;;;4997314;28;95889;-55
2021/12/29 06:47:39;;;;;;;3.10;1.55;;;23.50;51.50;;;;;;5001855;28;96521;-53
2021/12/29 06:50:10;;;;;;;9.00;1.85;;;23.50;51.90;;;;;;4997337;28;95721;-57
2021/12/29 06:52:39;;;;;;;4.18;1.75;;;23.40;51.80;;;;;;4983854;28;96227;-56
2021/12/29 06:55:09;;;;;;;1.52;0.88;;;23.40;51.50;;;;;;5004100;28;96647;-54
2021/12/29 06:57:39;;;;;;;1.25;0.80;;;23.30;51.40;;;;;;4996609;28;96390;-59
2021/12/29 07:00:13;;;;;;;4.78;1.52;;;23.30;51.20;;;;;;4994723;28;95704;-58
2021/12/29 07:02:47;;;;;;;4.00;1.58;;;23.20;51.30;;;;;;4995983;28;95775;-53
2021/12/29 07:05:19;;;;;;;1.70;0.98;;;23.20;51.20;;;;;;4994143;28;96163;-56
2021/12/29 07:07:52;;;;;;;1.92;0.80;;;23.20;51.00;;;;;;4992007;28;96263;-54
2021/12/29 07:10:24;;;;;;;4.65;1.10;;;23.20;50.90;;;;;;4994688;28;96684;-57
2021/12/29 07:12:58;;;;;;;3.33;1.63;;;23.20;50.70;;;;;;4991742;28;96832;-56
2021/12/29 07:15:29;;;;;;;3.20;1.27;;;23.20;50.90;;;;;;4980933;28;96216;-58
2021/12/29 07:18:01;;;;;;;3.47;1.20;;;23.10;50.80;;;;;;4995498;28;102582;-55
2021/12/29 07:20:33;;;;;;;3.35;1.27;;;23.10;50.70;;;;;;4999992;28;95862;-58
2021/12/29 07:23:07;;;;;;;4.20;1.17;;;23.10;50.60;;;;;;4996842;28;95453;-57
2021/12/29 07:25:37;;;;;;;2.78;1.33;;;23.00;50.40;;;;;;4993375;28;96320;-55
2021/12/29 07:28:09;;;;;;;3.38;1.23;;;23.00;50.40;;;;;;4997980;28;95870;-56
2021/12/29 07:30:40;;;;;;;3.20;1.10;;;23.00;50.60;;;;;;4978993;28;96096;-58
2021/12/29 07:33:11;;;;;;;3.15;1.27;;;23.00;50.90;;;;;;4998078;28;95750;-58
2021/12/29 07:35:42;;;;;;;3.00;1.63;;;23.00;51.30;;;;;;4992638;28;96180;-57
2021/12/29 07:38:13;;;;;;;7.78;1.98;;;23.00;51.30;;;;;;4991333;28;95872;-57
2021/12/29 07:40:44;;;;;;;2.63;1.52;;;22.90;52.30;;;;;;4992897;28;95305;-55
2021/12/29 07:43:15;;;;;;;3.20;0.90;;;23.00;51.70;;;;;;4989891;28;96069;-55
2021/12/29 07:45:46;;;;;;;3.55;1.50;;;23.00;51.70;;;;;;4998306;27;98198;-57
2021/12/29 07:48:18;;;;;;;3.40;1.55;;;22.90;51.70;;;;;;4993646;28;95807;-52
2021/12/29 07:50:48;;;;;;;4.10;1.58;;;23.00;52.00;;;;;;4991435;28;96187;-57
2021/12/29 07:53:19;;;;;;;5.80;3.42;;;22.90;52.10;;;;;;4995064;28;95601;-58
2021/12/29 07:55:50;;;;;;;6.88;3.90;;;23.00;52.20;;;;;;4993570;28;96251;-58
2021/12/29 07:58:22;;;;;;;9.83;5.87;;;23.00;52.30;;;;;;4988688;28;97515;-55
2021/12/29 08:00:54;;;;;;;9.55;5.63;;;23.00;52.50;;;;;;4984521;28;95824;-53
2021/12/29 08:03:26;;;;;;;11.23;6.05;;;23.00;52.70;;;;;;4988949;28;95280;-58
2021/12/29 08:05:57;;;;;;;10.25;5.28;;;23.00;53.20;;;;;;4993053;28;97279;-56
2021/12/29 08:08:28;;;;;;;9.57;5.35;;;22.90;53.40;;;;;;5000256;28;95884;-57
2021/12/29 08:10:59;;;;;;;8.50;4.88;;;22.90;53.70;;;;;;5004670;28;96013;-55
2021/12/29 08:13:30;;;;;;;9.48;5.03;;;22.90;54.10;;;;;;4997287;28;95884;-56
2021/12/29 08:16:01;;;;;;;8.73;3.95;;;23.00;54.70;;;;;;4979616;28;96887;-57
2021/12/29 08:18:32;;;;;;;10.65;5.05;;;23.00;55.00;;;;;;5000361;28;97207;-59
2021/12/29 08:21:04;;;;;;;6.70;3.92;;;23.00;55.10;;;;;;4999948;28;95517;-58
2021/12/29 08:23:34;;;;;;;8.00;3.88;;;23.00;55.50;;;;;;5004796;28;95764;-58
2021/12/29 08:26:05;;;;;;;6.70;4.10;;;23.10;55.60;;;;;;5000433;28;96059;-54
2021/12/29 08:28:36;;;;;;;6.15;3.60;;;23.00;55.60;;;;;;4991016;28;95712;-55
2021/12/29 08:31:10;;;;;;;8.35;4.15;;;23.00;55.90;;;;;;4987608;28;95980;-57
2021/12/29 08:33:41;;;;;;;5.03;3.55;;;23.00;55.90;;;;;;4994730;28;95775;-58
2021/12/29 08:36:12;;;;;;;5.03;3.58;;;23.00;56.10;;;;;;4998937;28;97317;-56
2021/12/29 08:38:43;;;;;;;9.68;4.03;;;23.10;56.50;;;;;;5007105;28;96616;-59
2021/12/29 08:41:14;;;;;;;5.32;2.50;;;23.10;56.70;;;;;;4993851;28;96980;-56
2021/12/29 08:43:47;;;;;;;5.72;2.67;;;23.10;57.00;;;;;;5000380;28;95590;-55
2021/12/29 08:46:18;;;;;;;9.60;2.67;;;23.20;57.30;;;;;;4986755;28;96118;-55
2021/12/29 08:48:48;;;;;;;;;;;23.20;57.80;;;;;;4993919;28;96170;-56
2021/12/29 08:51:19;;;;;;;2.60;1.83;;;23.10;58.00;;;;;;5005872;28;98002;-57
2021/12/29 08:53:50;;;;;;;4.90;1.95;;;23.10;58.30;;;;;;4984796;28;95863;-57
2021/12/29 08:56:20;;;;;;;6.40;2.10;;;23.10;58.50;;;;;;4988201;28;96058;-53
2021/12/29 08:58:50;;;;;;;2.92;2.17;;;23.10;58.80;;;;;;4993725;28;97530;-54
2021/12/29 09:01:22;;;;;;;7.57;2.25;;;23.20;59.00;;;;;;4984946;28;95791;-56
2021/12/29 09:03:55;;;;;;;3.33;1.67;;;23.20;59.30;;;;;;4988378;28;95890;-55
2021/12/29 09:06:26;;;;;;;4.30;1.80;;;23.10;59.30;;;;;;4992052;28;96009;-55
2021/12/29 09:08:56;;;;;;;10.23;2.58;;;23.20;59.70;;;;;;4992866;28;96816;-56
2021/12/29 09:11:30;;;;;;;5.05;1.40;;;23.10;59.70;;;;;;4988004;28;95838;-59
2021/12/29 09:14:02;;;;;;;6.57;2.25;;;23.10;60.10;;;;;;4988981;28;95823;-58
2021/12/29 09:16:33;;;;;;;3.17;1.45;;;23.00;60.50;;;;;;4981309;28;96612;-58
2021/12/29 09:19:11;;;;;;;2.75;1.23;;;22.80;60.80;;;;;;4983773;28;95976;-58
2021/12/29 09:21:44;;;;;;;4.05;1.30;;;22.60;60.90;;;;;;4992346;28;96173;-56
2021/12/29 09:24:17;;;;;;;4.13;1.35;;;22.60;62.00;;;;;;5000680;28;96249;-55
2021/12/29 09:26:50;;;;;;;4.32;1.42;;;22.50;61.70;;;;;;5007490;28;96924;-55
2021/12/29 09:29:20;;;;;;;7.75;1.77;;;22.50;62.10;;;;;;4993001;28;96351;-55
2021/12/29 09:31:52;;;;;;;7.60;2.13;;;22.50;61.90;;;;;;4984367;28;96305;-58
2021/12/29 09:34:22;;;;;;;6.90;1.90;;;22.30;61.60;;;;;;4989481;28;95605;-57
2021/12/29 09:36:52;;;;;;;5.80;2.00;;;22.20;62.20;;;;;;4990345;28;96183;-56
2021/12/29 09:39:24;;;;;;;7.27;1.83;;;22.00;63.00;;;;;;4989943;28;98058;-59
2021/12/29 09:41:56;;;;;;;9.88;2.35;;;21.90;63.30;;;;;;4989947;28;95864;-57
2021/12/29 09:44:30;;;;;;;6.15;2.05;;;21.90;63.50;;;;;;4988193;28;95803;-57
2021/12/29 09:47:01;;;;;;;5.00;1.70;;;21.70;63.30;;;;;;4983660;28;99017;-57
2021/12/29 09:49:33;;;;;;;8.43;2.35;;;21.60;64.50;;;;;;4991155;28;95871;-55
2021/12/29 09:52:05;;;;;;;5.32;1.55;;;21.70;63.80;;;;;;4991810;28;96123;-59
2021/12/29 09:54:36;;;;;;;7.60;1.65;;;21.50;64.10;;;;;;4992551;28;96014;-57
2021/12/29 09:57:06;;;;;;;5.32;1.90;;;21.10;64.80;;;;;;4999692;28;98428;-58
2021/12/29 09:59:37;;;;;;;7.40;1.70;;;20.60;66.50;;;;;;4993844;28;98602;-60
2021/12/29 10:02:11;;;;;;;8.00;2.17;;;20.40;68.00;;;;;;4988288;28;95401;-61
2021/12/29 10:04:46;;;;;;;8.15;2.00;;;20.00;68.40;;;;;;4996651;28;96130;-59
2021/12/29 10:07:20;;;;;;;5.93;1.75;;;19.80;69.80;;;;;;4989154;28;96055;-59
2021/12/29 10:09:52;;;;;;;10.07;1.52;;;19.50;70.80;;;;;;4992741;28;96206;-60
2021/12/29 10:12:23;;;;;;;6.72;1.38;;;19.40;71.60;;;;;;4993668;28;96109;-60
2021/12/29 10:14:57;;;;;;;9.77;1.25;;;19.40;71.50;;;;;;4991241;28;95934;-59
2021/12/29 10:17:35;;;;;;;6.15;1.58;;;19.30;72.00;;;;;;4987799;28;95991;-57
2021/12/29 10:20:15;;;;;;;3.85;1.00;;;19.20;73.30;;;;;;4976084;28;97249;-58
2021/12/29 10:22:56;;;;;;;3.42;1.20;;;19.30;72.60;;;;;;4994778;28;95913;-60
2021/12/29 10:25:35;;;;;;;4.95;1.60;;;19.50;72.00;;;;;;4990319;28;95749;-61
2021/12/29 10:28:06;;;;;;;2.50;1.10;;;19.80;70.70;;;;;;4994476;28;95896;-60
2021/12/29 10:30:36;;;;;;;;;;;19.90;70.40;;;;;;4989438;28;98022;-59
2021/12/29 10:33:13;;;;;;;2.60;1.02;;;19.90;71.10;;;;;;4966022;28;98294;-59
2021/12/29 10:35:43;;;;;;;7.07;1.73;;;20.00;70.00;;;;;;4971139;28;95880;-61
2021/12/29 10:38:19;;;;;;;9.70;2.33;;;19.90;69.80;;;;;;4972892;28;96631;-59
2021/12/29 10:40:52;;;;;;;4.38;1.90;;;20.20;70.20;;;;;;4977282;28;95825;-60
2021/12/29 10:43:23;;;;;;;3.33;1.00;;;20.00;69.40;;;;;;4969085;28;95616;-57
2021/12/29 10:45:53;;;;;;;3.75;1.50;;;20.10;69.20;;;;;;4976135;28;96029;-55
2021/12/29 10:48:28;;;;;;;;;;;19.60;70.00;;;;;;4989979;28;97371;-61
2021/12/29 10:51:03;;;;;;;3.80;1.40;;;19.20;72.00;;;;;;4987446;28;96089;-57
2021/12/29 10:53:36;;;;;;;2.95;1.20;;;19.50;72.20;;;;;;4976806;28;95467;-61
2021/12/29 10:56:17;;;;;;;6.88;1.42;;;19.90;71.60;;;;;;4994213;28;95549;-63
2021/12/29 10:58:50;;;;;;;6.20;1.55;;;20.10;70.20;;;;;;4990158;28;96377;-62
2021/12/29 11:01:21;;;;;;;2.55;1.10;;;20.30;70.00;;;;;;4977406;28;96523;-61
2021/12/29 11:03:57;;;;;;;10.07;1.90;;;20.30;68.90;;;;;;4980850;28;95709;-58
2021/12/29 11:06:28;;;;;;;7.95;1.90;;;20.40;68.50;;;;;;4968883;28;95892;-60
2021/12/29 11:09:02;;;;;;;10.18;1.88;;;20.40;68.50;;;;;;4979415;28;97315;-59
2021/12/29 11:11:43;;;;;;;12.30;1.98;;;20.40;68.40;;;;;;4976521;28;96563;-60
2021/12/29 11:14:42;;;;;;;5.82;1.65;;;20.30;68.40;;;;;;4976383;28;95700;-56
2021/12/29 11:17:22;;;;;;;5.45;1.27;;;20.10;67.60;;;;;;4967850;28;95956;-56
2021/12/29 11:19:59;;;;;;;5.05;1.67;;;19.10;70.00;;;;;;4983728;28;95602;-59
2021/12/29 11:22:32;;;;;;;4.22;1.10;;;18.70;72.50;;;;;;4984624;28;96206;-57
2021/12/29 11:25:05;;;;;;;6.22;1.80;;;18.50;73.30;;;;;;4975674;28;96041;-55
2021/12/29 11:27:38;;;;;;;1.20;0.80;;;18.50;74.50;;;;;;4980168;28;95531;-58
2021/12/29 11:30:14;;;;;;;5.28;1.08;;;18.50;73.10;;;;;;4980699;28;96230;-57
2021/12/29 11:32:47;;;;;;;6.80;1.20;;;18.60;74.50;;;;;;4968127;28;96080;-58
2021/12/29 11:35:22;;;;;;;6.35;1.20;;;18.40;74.10;;;;;;4977498;28;95869;-56
2021/12/29 11:37:56;;;;;;;6.40;1.08;;;18.00;75.10;;;;;;4972065;28;96162;-54
2021/12/29 11:40:31;;;;;;;2.95;0.90;;;17.90;75.70;;;;;;4973185;28;96309;-58
2021/12/29 11:43:03;;;;;;;3.33;0.85;;;18.00;76.20;;;;;;4974565;28;96483;-56
2021/12/29 11:45:33;;;;;;;4.18;0.80;;;18.00;75.70;;;;;;4969993;28;95857;-57
2021/12/29 11:48:04;;;;;;;2.42;1.08;;;17.90;75.60;;;;;;4980292;28;95238;-56
2021/12/29 11:50:37;;;;;;;9.40;1.85;;;18.00;76.40;;;;;;4972364;28;96985;-56
2021/12/29 11:53:22;;;;;;;3.03;0.95;;;18.20;75.90;;;;;;4972273;28;96784;-57
2021/12/29 11:56:03;;;;;;;7.00;1.27;;;18.30;75.10;;;;;;4975598;28;95664;-54
2021/12/29 11:58:38;;;;;;;2.10;0.80;;;18.40;74.20;;;;;;4975676;28;95352;-55
2021/12/29 12:01:16;;;;;;;6.13;1.48;;;18.00;75.00;;;;;;4965602;28;99457;-58
2021/12/29 12:03:52;;;;;;;7.97;1.75;;;17.80;75.60;;;;;;4987608;28;96215;-56
2021/12/29 12:06:40;;;;;;;4.75;1.38;;;17.60;76.00;;;;;;5000030;28;95749;-59
2021/12/29 12:09:25;;;;;;;3.08;1.25;;;17.40;77.00;;;;;;4995311;28;95961;-56
2021/12/29 12:11:59;;;;;;;2.97;0.65;;;17.20;77.10;;;;;;4998636;28;98079;-57
2021/12/29 12:14:36;;;;;;;4.43;1.23;;;17.00;77.70;;;;;;5000740;28;95702;-54
2021/12/29 12:17:18;;;;;;;3.80;1.00;;;16.80;79.40;;;;;;4987787;28;96615;-57
2021/12/29 12:20:06;;;;;;;3.35;1.35;;;16.90;79.30;;;;;;4994611;28;95587;-58
2021/12/29 12:22:51;;;;;;;4.22;1.30;;;16.90;78.50;;;;;;4995901;28;96139;-53
2021/12/29 12:25:34;;;;;;;5.03;1.50;;;16.80;78.50;;;;;;4990557;28;95774;-55
2021/12/29 12:28:16;;;;;;;9.55;1.63;;;16.80;78.30;;;;;;4998529;28;95733;-58
2021/12/29 12:30:51;;;;;;;9.98;1.60;;;16.70;79.30;;;;;;4988572;28;96191;-56
2021/12/29 12:33:29;;;;;;;5.00;1.50;;;16.70;80.20;;;;;;4963953;28;98484;-55
2021/12/29 12:36:09;;;;;;;4.10;1.38;;;16.80;79.10;;;;;;4979077;28;95528;-58
2021/12/29 12:38:40;;;;;;;3.78;0.98;;;16.70;80.20;;;;;;4977167;28;95778;-58
2021/12/29 12:41:16;;;;;;;6.22;0.75;;;16.70;79.70;;;;;;4981248;28;95427;-56
2021/12/29 12:43:57;;;;;;;5.60;1.55;;;16.80;79.00;;;;;;4973783;28;96114;-55
2021/12/29 12:46:48;;;;;;;4.68;1.08;;;16.60;78.60;;;;;;4974947;28;95782;-58
2021/12/29 12:49:26;;;;;;;5.70;2.17;;;16.40;80.20;;;;;;4989757;28;95958;-58
2021/12/29 12:52:09;;;;;;;4.47;1.10;;;16.20;71.10;;;;;;4990972;28;95353;-56
2021/12/29 12:54:53;;;;;;;2.72;1.08;;;16.00;81.10;;;;;;5006606;28;96047;-57
2021/12/29 12:57:33;;;;;;;1.67;0.70;;;16.20;81.30;;;;;;5003784;28;96002;-57
2021/12/29 13:00:17;;;;;;;3.40;1.02;;;16.00;80.70;;;;;;5007152;28;95726;-57
2021/12/29 13:02:56;;;;;;;3.78;0.73;;;16.00;81.20;;;;;;4997338;28;95392;-56
2021/12/29 13:05:40;;;;;;;2.85;1.08;;;15.80;81.20;;;;;;4997940;28;96011;-55
2021/12/29 13:08:15;;;;;;;3.72;1.00;;;16.30;72.60;;;;;;4987909;28;96363;-60
2021/12/29 13:11:20;;;;;;;3.10;1.40;;;16.00;80.50;;;;;;4998644;28;96127;-55
2021/12/29 13:13:54;;;;;;;2.20;0.68;;;15.80;82.10;;;;;;4996197;28;95665;-57
2021/12/29 13:16:26;;;;;;;3.97;1.10;;;15.90;81.50;;;;;;4987069;28;96254;-53
2021/12/29 13:19:00;;;;;;;3.60;0.80;;;16.10;82.00;;;;;;4999076;28;97462;-55
2021/12/29 13:21:42;;;;;;;2.28;0.93;;;16.00;80.60;;;;;;4998982;28;95766;-56
2021/12/29 13:24:15;;;;;;;3.20;1.05;;;16.00;81.60;;;;;;4990944;28;95817;-54
2021/12/29 13:26:48;;;;;;;4.07;1.38;;;15.90;80.60;;;;;;4984716;28;95846;-55